createdAt,value
2022-08-17T00:01:51.869Z,14.60
2022-08-17T00:04:23.581Z,14.50
2022-08-17T00:06:53.379Z,14.50
2022-08-17T00:09:21.594Z,14.40
2022-08-17T00:12:03.915Z,14.40
2022-08-17T00:14:38.962Z,14.40
2022-08-17T00:17:07.115Z,14.40
2022-08-17T00:19:36.654Z,14.30
2022-08-17T00:22:31.288Z,14.40
2022-08-17T00:24:55.452Z,14.30
2022-08-17T00:27:23.615Z,14.30
2022-08-17T00:29:52.223Z,14.20
2022-08-17T00:33:12.614Z,14.20
2022-08-17T00:35:12.599Z,14.20
2022-08-17T00:37:41.043Z,14.10
2022-08-17T00:40:12.986Z,14.10
2022-08-17T00:42:42.157Z,14.10
2022-08-17T00:45:13.401Z,14.10
2022-08-17T00:47:42.537Z,14.00
2022-08-17T00:50:16.459Z,14.00
2022-08-17T00:52:52.513Z,14.00
2022-08-17T00:55:22.342Z,14.00
2022-08-17T00:57:55.619Z,13.90
2022-08-17T01:00:28.275Z,13.90
2022-08-17T01:03:01.304Z,13.90
2022-08-17T01:05:33.171Z,13.90
2022-08-17T01:08:03.610Z,13.90
2022-08-17T01:10:59.690Z,13.90
2022-08-17T01:13:28.739Z,13.80
2022-08-17T01:16:00.284Z,13.80
2022-08-17T01:18:29.191Z,13.70
2022-08-17T01:21:04.280Z,13.70
2022-08-17T01:23:34.120Z,13.70
2022-08-17T01:26:03.189Z,13.70
2022-08-17T01:28:53.778Z,13.60
2022-08-17T01:31:25.301Z,13.60
2022-08-17T01:33:53.532Z,13.60
2022-08-17T01:36:22.561Z,13.60
2022-08-17T01:38:52.139Z,13.50
2022-08-17T01:41:22.689Z,13.50
2022-08-17T01:43:55.191Z,13.50
2022-08-17T01:46:27.900Z,13.50
2022-08-17T01:48:57.917Z,13.50
2022-08-17T01:51:27.091Z,13.40
2022-08-17T01:53:59.451Z,13.40
2022-08-17T01:56:30.009Z,13.30
2022-08-17T01:58:58.428Z,13.30
2022-08-17T02:01:30.388Z,13.20
2022-08-17T02:04:01.562Z,13.20
2022-08-17T02:06:31.597Z,13.20
2022-08-17T02:09:16.983Z,13.20
2022-08-17T02:11:46.126Z,13.20
2022-08-17T02:14:15.002Z,13.20
2022-08-17T02:16:43.850Z,13.20
2022-08-17T02:19:14.405Z,13.20
2022-08-17T02:21:44.793Z,13.10
2022-08-17T02:24:58.001Z,13.10
2022-08-17T02:27:07.744Z,13.10
2022-08-17T02:29:35.935Z,13.10
2022-08-17T02:32:05.068Z,13.00
2022-08-17T02:34:33.422Z,13.00
2022-08-17T02:37:01.559Z,13.00
2022-08-17T02:39:31.492Z,13.00
2022-08-17T02:42:02.403Z,13.00
2022-08-17T02:44:39.608Z,13.00
2022-08-17T02:47:09.906Z,13.00
2022-08-17T02:49:38.683Z,12.90
2022-08-17T02:52:08.921Z,12.90
2022-08-17T02:54:40.871Z,12.90
2022-08-17T02:57:11.007Z,12.90
2022-08-17T02:59:39.344Z,12.90
2022-08-17T03:02:09.217Z,12.90
2022-08-17T03:04:37.491Z,12.90
2022-08-17T03:07:06.766Z,12.80
2022-08-17T03:09:35.253Z,12.80
2022-08-17T03:12:11.176Z,12.80
2022-08-17T03:14:41.438Z,12.70
2022-08-17T03:17:17.040Z,12.70
2022-08-17T03:19:45.774Z,12.70
2022-08-17T03:22:36.165Z,12.60
2022-08-17T03:25:02.190Z,12.60
2022-08-17T03:27:31.924Z,12.60
2022-08-17T03:30:00.140Z,12.50
2022-08-17T03:32:28.422Z,12.50
2022-08-17T03:35:00.913Z,12.50
2022-08-17T03:37:29.049Z,12.50
2022-08-17T03:39:57.237Z,12.50
2022-08-17T03:42:31.348Z,12.40
2022-08-17T03:45:03.305Z,12.40
2022-08-17T03:47:48.678Z,12.40
2022-08-17T03:50:35.473Z,12.40
2022-08-17T03:53:24.606Z,12.40
2022-08-17T03:56:10.028Z,12.30
2022-08-17T03:58:38.223Z,12.40
2022-08-17T04:01:08.471Z,12.30
2022-08-17T04:03:36.921Z,12.30
2022-08-17T04:06:05.717Z,12.30
2022-08-17T04:08:34.223Z,12.40
2022-08-17T04:11:02.843Z,12.40
2022-08-17T04:13:30.973Z,12.40
2022-08-17T04:16:00.038Z,12.40
2022-08-17T04:18:29.674Z,12.50
2022-08-17T04:20:57.854Z,12.80
2022-08-17T04:23:32.707Z,13.10
2022-08-17T04:26:01.069Z,13.50
2022-08-17T04:28:30.107Z,14.00
2022-08-17T04:30:58.576Z,14.40
2022-08-17T04:33:31.047Z,15.00
2022-08-17T04:36:01.615Z,15.60
2022-08-17T04:38:31.694Z,16.10
2022-08-17T04:41:18.580Z,16.40
2022-08-17T04:43:48.887Z,16.50
2022-08-17T04:46:19.353Z,16.30
2022-08-17T04:48:51.817Z,16.20
2022-08-17T04:51:22.361Z,16.10
2022-08-17T04:53:54.511Z,16.00
2022-08-17T04:56:25.988Z,16.50
2022-08-17T04:58:57.251Z,17.40
2022-08-17T05:01:29.308Z,18.40
2022-08-17T05:04:20.936Z,19.20
2022-08-17T05:06:51.757Z,20.20
2022-08-17T05:09:20.063Z,21.40
2022-08-17T05:11:48.398Z,22.40
2022-08-17T05:14:16.786Z,23.20
2022-08-17T05:16:45.885Z,23.80
2022-08-17T05:19:15.387Z,24.50
2022-08-17T05:21:43.549Z,25.00
2022-08-17T05:24:16.728Z,25.30
2022-08-17T05:27:06.014Z,25.30
2022-08-17T05:29:35.715Z,25.20
2022-08-17T05:32:37.975Z,25.30
2022-08-17T05:35:00.447Z,25.40
2022-08-17T05:37:28.892Z,25.90
2022-08-17T05:39:57.195Z,26.60
2022-08-17T05:42:25.658Z,26.40
2022-08-17T05:44:53.782Z,26.40
2022-08-17T05:47:23.179Z,26.80
2022-08-17T05:49:51.428Z,26.90
2022-08-17T05:52:34.541Z,26.90
2022-08-17T05:55:14.966Z,27.00
2022-08-17T05:58:01.020Z,27.10
2022-08-17T06:00:34.774Z,27.00
2022-08-17T06:03:23.607Z,26.70
2022-08-17T06:06:02.420Z,26.50
2022-08-17T06:08:39.659Z,26.60
2022-08-17T06:11:17.066Z,27.10
2022-08-17T06:14:14.592Z,28.30
2022-08-17T06:16:47.439Z,29.30
2022-08-17T06:19:20.038Z,30.10
2022-08-17T06:21:51.263Z,30.30
2022-08-17T06:24:28.559Z,30.80
2022-08-17T06:27:03.058Z,31.40
2022-08-17T06:29:41.220Z,32.50
2022-08-17T06:32:12.826Z,33.10
2022-08-17T06:34:43.758Z,33.70
2022-08-17T06:37:36.517Z,34.10
2022-08-17T06:40:21.290Z,34.60
2022-08-17T06:43:06.149Z,35.20
2022-08-17T06:45:40.088Z,35.80
2022-08-17T06:48:13.595Z,35.80
2022-08-17T06:50:48.056Z,35.90
2022-08-17T06:53:24.457Z,35.50
2022-08-17T06:56:01.017Z,35.30
2022-08-17T06:58:31.618Z,35.10
2022-08-17T07:01:07.016Z,34.60
2022-08-17T07:03:40.837Z,34.20
2022-08-17T07:06:15.597Z,34.50
2022-08-17T07:08:54.750Z,34.80
2022-08-17T07:11:28.454Z,35.60
2022-08-17T07:14:07.736Z,36.30
2022-08-17T07:16:42.238Z,37.60
2022-08-17T07:19:11.267Z,38.50
2022-08-17T07:21:58.339Z,38.90
2022-08-17T07:24:35.738Z,38.40
2022-08-17T07:27:12.829Z,38.70
2022-08-17T07:29:44.899Z,38.60
2022-08-17T07:32:18.629Z,38.50
2022-08-17T07:35:11.548Z,38.20
2022-08-17T07:37:41.554Z,37.60
2022-08-17T07:40:30.962Z,37.90
2022-08-17T07:43:22.051Z,37.90
2022-08-17T07:46:35.404Z,37.60
2022-08-17T07:49:25.521Z,38.10
2022-08-17T07:52:24.314Z,38.10
2022-08-17T07:54:53.789Z,38.10
2022-08-17T07:57:33.459Z,38.20
2022-08-17T08:00:19.487Z,39.00
2022-08-17T08:03:16.099Z,39.30
2022-08-17T08:05:54.523Z,39.50
2022-08-17T08:08:32.471Z,39.70
2022-08-17T08:11:07.264Z,39.70
2022-08-17T08:13:40.549Z,39.30
2022-08-17T08:16:31.247Z,38.90
2022-08-17T08:19:02.239Z,38.10
2022-08-17T08:21:41.969Z,38.80
2022-08-17T08:24:43.119Z,39.30
2022-08-17T08:27:22.326Z,40.30
2022-08-17T08:29:58.122Z,39.60
2022-08-17T08:32:48.141Z,39.60
2022-08-17T08:35:26.844Z,40.30
2022-08-17T08:38:03.629Z,41.20
2022-08-17T08:40:44.071Z,41.00
2022-08-17T08:43:23.910Z,40.30
2022-08-17T08:45:58.327Z,40.70
2022-08-17T08:48:53.711Z,40.60
2022-08-17T08:51:35.947Z,40.30
2022-08-17T08:54:15.670Z,40.50
2022-08-17T08:57:19.238Z,40.70
2022-08-17T08:59:51.172Z,40.00
2022-08-17T09:02:44.922Z,40.60
2022-08-17T09:05:26.575Z,41.10
2022-08-17T09:08:11.348Z,39.90
2022-08-17T09:10:45.565Z,39.10
2022-08-17T09:13:20.901Z,38.90
2022-08-17T09:15:56.081Z,40.00
2022-08-17T09:19:00.370Z,40.40
2022-08-17T09:21:22.593Z,40.10
2022-08-17T09:24:02.469Z,40.50
2022-08-17T09:26:35.845Z,40.90
2022-08-17T09:29:08.799Z,41.00
2022-08-17T10:03:06.846Z,39.90
2022-08-17T10:05:46.610Z,39.90
2022-08-17T10:08:25.639Z,40.10
2022-08-17T10:11:05.798Z,40.50
2022-08-17T10:13:53.452Z,40.70
2022-08-17T10:16:28.752Z,41.10
2022-08-17T10:19:06.191Z,41.30
2022-08-17T10:22:00.870Z,40.50
2022-08-17T10:25:20.879Z,40.50
2022-08-17T10:27:47.542Z,40.40
2022-08-17T10:30:18.793Z,40.50
2022-08-17T10:32:52.294Z,40.70
2022-08-17T10:35:34.397Z,39.80
2022-08-17T10:38:38.669Z,38.80
2022-08-17T10:41:24.159Z,37.70
2022-08-17T10:44:40.873Z,35.60
2022-08-17T10:47:08.109Z,35.00
2022-08-17T10:49:37.197Z,34.10
2022-08-17T10:52:25.070Z,33.60
2022-08-17T10:55:13.684Z,33.20
2022-08-17T10:57:45.511Z,33.10
2022-08-17T11:00:58.566Z,33.10
2022-08-17T11:03:27.689Z,32.80
2022-08-17T11:06:11.051Z,32.50
2022-08-17T11:09:21.216Z,32.30
2022-08-17T11:12:11.757Z,32.10
2022-08-17T11:15:04.835Z,32.00
2022-08-17T11:18:02.385Z,32.00
2022-08-17T11:20:54.487Z,31.50
2022-08-17T11:23:40.805Z,31.60
2022-08-17T11:26:26.218Z,31.80
2022-08-17T11:29:00.158Z,31.90
2022-08-17T11:31:38.761Z,32.00
2022-08-17T11:34:15.305Z,31.60
2022-08-17T11:37:15.537Z,31.20
2022-08-17T11:40:12.424Z,30.80
2022-08-17T11:43:00.479Z,30.80
2022-08-17T11:45:41.646Z,30.90
2022-08-17T11:48:39.543Z,31.10
2022-08-17T11:51:43.057Z,30.90
2022-08-17T11:54:34.587Z,30.90
2022-08-17T11:57:41.478Z,30.90
2022-08-17T12:00:31.582Z,30.70
2022-08-17T12:03:54.152Z,30.90
2022-08-17T12:06:54.706Z,31.10
2022-08-17T12:09:26.404Z,30.90
2022-08-17T12:12:13.869Z,31.20
2022-08-17T12:15:09.481Z,31.30
2022-08-17T12:17:41.525Z,31.40
2022-08-17T12:20:17.769Z,31.60
2022-08-17T12:22:54.933Z,31.80
2022-08-17T12:25:31.697Z,32.10
2022-08-17T12:28:06.014Z,32.30
2022-08-17T12:30:36.788Z,32.40
2022-08-17T12:33:12.056Z,32.20
2022-08-17T12:35:41.646Z,32.40
2022-08-17T12:38:32.494Z,32.30
2022-08-17T12:40:59.867Z,32.10
2022-08-17T12:43:32.945Z,31.90
2022-08-17T12:46:15.110Z,31.70
2022-08-17T12:48:55.110Z,31.70
2022-08-17T12:51:30.376Z,32.00
2022-08-17T12:53:58.599Z,32.30
2022-08-17T12:56:26.858Z,32.60
2022-08-17T12:58:56.751Z,32.80
2022-08-17T13:01:26.164Z,32.70
2022-08-17T13:04:01.002Z,32.60
2022-08-17T13:06:33.420Z,32.50
2022-08-17T13:09:11.289Z,32.60
2022-08-17T13:11:49.280Z,32.50
2022-08-17T13:14:19.068Z,32.30
2022-08-17T13:16:53.415Z,32.40
2022-08-17T13:19:29.869Z,32.30
2022-08-17T13:22:13.607Z,32.30
2022-08-17T13:24:54.587Z,31.90
2022-08-17T13:27:25.199Z,31.60
2022-08-17T13:29:55.903Z,31.60
2022-08-17T13:32:34.514Z,31.30
2022-08-17T13:35:14.172Z,31.10
2022-08-17T13:37:58.902Z,31.10
2022-08-17T13:40:32.270Z,31.10
2022-08-17T13:43:03.497Z,31.00
2022-08-17T13:45:46.106Z,31.00
2022-08-17T13:48:26.934Z,31.10
2022-08-17T13:51:18.383Z,31.00
2022-08-17T13:53:56.080Z,31.10
2022-08-17T13:56:41.732Z,31.10
2022-08-17T13:59:14.313Z,30.90
2022-08-17T14:01:51.132Z,30.80
2022-08-17T14:04:25.140Z,30.70
2022-08-17T14:06:57.942Z,30.40
2022-08-17T14:09:34.883Z,30.60
2022-08-17T14:12:07.945Z,30.80
2022-08-17T14:14:36.421Z,31.10
2022-08-17T14:17:14.893Z,31.30
2022-08-17T14:19:43.254Z,31.60
2022-08-17T14:22:18.101Z,31.50
2022-08-17T14:24:47.915Z,31.60
2022-08-17T14:27:18.394Z,31.60
2022-08-17T14:29:46.576Z,31.60
2022-08-17T14:32:20.651Z,31.70
2022-08-17T14:34:50.269Z,31.70
2022-08-17T14:37:18.792Z,31.80
2022-08-17T14:39:48.870Z,31.30
2022-08-17T14:42:17.858Z,31.50
2022-08-17T14:44:46.352Z,31.50
2022-08-17T14:47:16.018Z,31.50
2022-08-17T14:49:47.571Z,31.60
2022-08-17T14:52:18.609Z,31.30
2022-08-17T14:54:48.481Z,31.20
2022-08-17T14:57:23.634Z,31.30
2022-08-17T15:00:03.281Z,31.30
2022-08-17T15:02:31.875Z,31.40
2022-08-17T15:05:01.919Z,31.40
2022-08-17T15:07:30.995Z,31.20
2022-08-17T15:10:02.358Z,31.10
2022-08-17T15:12:34.034Z,31.10
2022-08-17T15:15:05.012Z,31.10
2022-08-17T15:17:45.149Z,31.10
2022-08-17T15:20:15.843Z,31.00
2022-08-17T15:22:45.733Z,31.00
2022-08-17T15:25:15.796Z,30.90
2022-08-17T15:27:44.262Z,31.00
2022-08-17T15:30:13.921Z,31.00
2022-08-17T15:32:51.434Z,31.00
2022-08-17T15:35:27.858Z,31.00
2022-08-17T15:37:58.647Z,31.10
2022-08-17T15:40:28.543Z,31.10
2022-08-17T15:42:57.957Z,31.00
2022-08-17T15:45:28.418Z,31.00
2022-08-17T15:47:56.653Z,30.90
2022-08-17T15:50:25.011Z,30.70
2022-08-17T15:52:58.846Z,30.50
2022-08-17T15:55:30.029Z,30.40
2022-08-17T15:57:58.765Z,30.10
2022-08-17T16:00:28.557Z,30.00
2022-08-17T16:03:46.298Z,30.00
2022-08-17T16:05:46.411Z,30.00
2022-08-17T16:08:20.014Z,29.90
2022-08-17T16:10:51.257Z,29.70
2022-08-17T16:13:20.116Z,29.50
2022-08-17T16:15:54.828Z,29.40
2022-08-17T16:18:31.078Z,29.20
2022-08-17T16:21:22.651Z,29.10
2022-08-17T16:23:53.540Z,29.00
2022-08-17T16:26:24.114Z,29.10
2022-08-17T16:28:52.771Z,29.00
2022-08-17T16:31:21.794Z,29.00
2022-08-17T16:34:16.381Z,29.00
2022-08-17T16:36:39.523Z,29.00
2022-08-17T16:39:07.772Z,29.00
2022-08-17T16:41:46.809Z,28.90
2022-08-17T16:44:17.020Z,28.90
2022-08-17T16:46:46.383Z,28.70
2022-08-17T16:49:23.228Z,28.60
2022-08-17T16:52:04.444Z,28.40
2022-08-17T16:54:32.701Z,28.30
2022-08-17T16:57:04.562Z,28.20
2022-08-17T16:59:41.961Z,28.00
2022-08-17T17:02:14.952Z,27.90
2022-08-17T17:04:49.124Z,27.70
2022-08-17T17:07:34.885Z,27.60
2022-08-17T17:10:08.620Z,27.50
2022-08-17T17:13:02.006Z,27.40
2022-08-17T17:15:35.623Z,27.30
2022-08-17T17:18:07.054Z,27.30
2022-08-17T17:20:44.058Z,27.30
2022-08-17T17:23:29.235Z,27.20
2022-08-17T17:26:04.495Z,27.20
2022-08-17T17:28:43.626Z,27.20
2022-08-17T17:31:16.003Z,27.10
2022-08-17T17:33:48.340Z,27.00
2022-08-17T17:36:26.928Z,26.90
2022-08-17T17:39:00.409Z,26.90
2022-08-17T17:41:34.423Z,26.90
2022-08-17T17:44:09.019Z,26.90
2022-08-17T17:46:40.973Z,26.80
2022-08-17T17:49:11.237Z,26.60
2022-08-17T17:52:06.485Z,26.50
2022-08-17T17:54:48.520Z,26.40
2022-08-17T17:57:24.766Z,26.20
2022-08-17T18:00:03.520Z,26.10
2022-08-17T18:02:53.023Z,25.90
2022-08-17T18:05:49.022Z,25.80
2022-08-17T18:08:32.304Z,25.50
2022-08-17T18:11:13.003Z,25.30
2022-08-17T18:13:54.796Z,25.10
2022-08-17T18:16:24.778Z,25.00
2022-08-17T18:18:53.766Z,24.90
2022-08-17T18:21:24.521Z,24.70
2022-08-17T18:23:56.066Z,24.50
2022-08-17T18:26:44.628Z,24.30
2022-08-17T18:29:31.763Z,24.10
2022-08-17T18:32:29.933Z,24.00
2022-08-17T18:35:00.599Z,23.80
2022-08-17T18:37:42.686Z,23.50
2022-08-17T18:40:33.991Z,23.30
2022-08-17T18:43:10.297Z,23.10
2022-08-17T18:45:46.840Z,22.90
2022-08-17T18:48:32.847Z,22.70
2022-08-17T18:51:21.342Z,22.50
2022-08-17T18:54:20.388Z,22.30
2022-08-17T18:56:54.885Z,22.00
2022-08-17T18:59:45.126Z,21.80
2022-08-17T19:02:39.113Z,21.70
2022-08-17T19:05:30.425Z,21.50
2022-08-17T19:08:19.893Z,21.30
2022-08-17T19:10:49.792Z,21.20
2022-08-17T19:13:23.249Z,21.10
2022-08-17T19:16:11.610Z,21.00
2022-08-17T19:18:46.623Z,20.80
2022-08-17T19:21:22.460Z,20.70
2022-08-17T19:23:53.877Z,20.60
2022-08-17T19:26:54.419Z,20.50
2022-08-17T19:29:16.728Z,20.40
2022-08-17T19:31:50.667Z,20.30
2022-08-17T19:34:33.537Z,20.20
2022-08-17T19:37:08.976Z,20.10
2022-08-17T19:39:44.706Z,20.00
2022-08-17T19:42:20.635Z,20.00
2022-08-17T19:44:58.571Z,19.90
2022-08-17T19:47:56.474Z,19.80
2022-08-17T19:50:38.560Z,19.70
2022-08-17T19:53:17.682Z,19.60
2022-08-17T19:55:55.499Z,19.50
2022-08-17T19:58:37.246Z,19.40
2022-08-17T20:01:08.219Z,19.30
2022-08-17T20:03:53.119Z,19.20
2022-08-17T20:06:23.260Z,19.10
2022-08-17T20:09:00.498Z,19.00
2022-08-17T20:11:36.026Z,18.90
2022-08-17T20:14:08.497Z,18.80
2022-08-17T20:16:36.689Z,18.70
2022-08-17T20:19:09.617Z,18.70
2022-08-17T20:21:44.017Z,18.50
2022-08-17T20:24:21.837Z,18.40
2022-08-17T20:26:58.203Z,18.40
2022-08-17T20:29:40.247Z,18.30
2022-08-17T20:32:19.871Z,18.30
2022-08-17T20:34:48.834Z,18.30
2022-08-17T20:37:30.807Z,18.30
2022-08-17T20:40:25.937Z,18.30
2022-08-17T20:42:54.806Z,18.30
2022-08-17T20:46:02.933Z,18.30
2022-08-17T20:48:38.961Z,18.30
2022-08-17T20:51:26.055Z,18.20
2022-08-17T20:54:36.494Z,18.20
2022-08-17T20:57:14.076Z,18.10
2022-08-17T21:00:14.100Z,18.00
2022-08-17T21:02:44.814Z,17.90
2022-08-17T21:05:59.884Z,17.90
2022-08-17T21:08:31.777Z,17.80
2022-08-17T21:11:01.539Z,17.80
2022-08-17T21:14:05.157Z,17.70
2022-08-17T21:16:46.940Z,17.60
2022-08-17T21:19:30.935Z,17.60
2022-08-17T21:22:08.673Z,17.50
2022-08-17T21:24:48.961Z,17.60
2022-08-17T21:27:33.878Z,17.60
2022-08-17T21:30:32.596Z,17.60
2022-08-17T21:33:26.859Z,17.60
2022-08-17T21:36:11.840Z,17.50
2022-08-17T21:38:44.157Z,17.50
2022-08-17T21:41:22.265Z,17.50
2022-08-17T21:43:53.109Z,17.50
2022-08-17T21:46:28.624Z,17.50
2022-08-17T21:49:09.140Z,17.40
2022-08-17T21:51:45.894Z,17.50
2022-08-17T21:54:28.175Z,17.50
2022-08-17T21:56:56.530Z,17.60
2022-08-17T21:59:28.641Z,17.60
2022-08-17T22:01:58.703Z,17.70
2022-08-17T22:04:31.234Z,17.70
2022-08-17T22:07:01.988Z,17.70
2022-08-17T22:09:32.837Z,17.70
2022-08-17T22:12:06.082Z,17.70
2022-08-17T22:14:52.064Z,17.70
2022-08-17T22:17:24.371Z,17.70
2022-08-17T22:19:56.608Z,17.70
2022-08-17T22:22:32.575Z,17.70
2022-08-17T22:25:06.091Z,17.60
2022-08-17T22:27:49.420Z,17.70
2022-08-17T22:30:26.246Z,17.80
2022-08-17T22:32:55.512Z,17.80
2022-08-17T22:35:40.991Z,17.80
2022-08-17T22:38:30.577Z,17.90
2022-08-17T22:41:24.867Z,18.00
2022-08-17T22:43:55.122Z,18.00
2022-08-17T22:46:25.717Z,18.10
2022-08-17T22:48:57.709Z,18.20
2022-08-17T22:51:30.266Z,18.30
2022-08-17T22:54:19.822Z,18.30
2022-08-17T22:57:10.398Z,18.40
2022-08-17T22:59:45.743Z,18.40
2022-08-17T23:02:19.248Z,18.60
2022-08-17T23:04:51.390Z,18.60
2022-08-17T23:07:23.718Z,18.60
2022-08-17T23:09:54.273Z,18.60
2022-08-17T23:12:27.438Z,18.60
2022-08-17T23:15:01.659Z,18.60
2022-08-17T23:17:37.164Z,18.50
2022-08-17T23:20:08.457Z,18.50
2022-08-17T23:22:52.527Z,18.40
2022-08-17T23:25:28.222Z,18.40
2022-08-17T23:27:57.814Z,18.40
2022-08-17T23:30:28.569Z,18.40
2022-08-17T23:32:59.637Z,18.40
2022-08-17T23:35:40.335Z,18.40
2022-08-17T23:38:11.530Z,18.40
2022-08-17T23:40:40.014Z,18.40
2022-08-17T23:43:23.991Z,18.30
2022-08-17T23:45:53.991Z,18.30
2022-08-17T23:48:28.611Z,18.20
2022-08-17T23:51:09.269Z,18.20
2022-08-17T23:53:44.188Z,18.10
2022-08-17T23:56:12.379Z,18.00
2022-08-17T23:58:42.559Z,17.90
